sensor_id;sensor_type;location;lat;lon;timestamp;P1;durP1;ratioP1;P2;durP2;ratioP2
72949;SDS011;62720;45.710;9.590;2022-09-24T00:00:27;7.80;;;3.13;;
72949;SDS011;62720;45.710;9.590;2022-09-24T00:02:52;7.60;;;3.33;;
72949;SDS011;62720;45.710;9.590;2022-09-24T00:05:18;8.23;;;3.23;;
72949;SDS011;62720;45.710;9.590;2022-09-24T00:07:43;7.80;;;3.10;;
72949;SDS011;62720;45.710;9.590;2022-09-24T00:10:09;8.05;;;3.70;;
72949;SDS011;62720;45.710;9.590;2022-09-24T00:12:34;7.25;;;3.28;;
72949;SDS011;62720;45.710;9.590;2022-09-24T00:15:00;8.03;;;3.17;;
72949;SDS011;62720;45.710;9.590;2022-09-24T00:17:25;6.93;;;2.93;;
72949;SDS011;62720;45.710;9.590;2022-09-24T00:19:50;10.73;;;3.60;;
72949;SDS011;62720;45.710;9.590;2022-09-24T00:22:15;7.43;;;3.00;;
72949;SDS011;62720;45.710;9.590;2022-09-24T00:24:40;7.43;;;3.03;;
72949;SDS011;62720;45.710;9.590;2022-09-24T00:27:26;10.32;;;3.50;;
72949;SDS011;62720;45.710;9.590;2022-09-24T00:29:51;8.25;;;3.15;;
72949;SDS011;62720;45.710;9.590;2022-09-24T00:32:16;6.30;;;2.80;;
72949;SDS011;62720;45.710;9.590;2022-09-24T00:34:41;8.70;;;3.43;;
72949;SDS011;62720;45.710;9.590;2022-09-24T00:37:07;7.95;;;3.17;;
72949;SDS011;62720;45.710;9.590;2022-09-24T00:39:32;7.28;;;3.28;;
72949;SDS011;62720;45.710;9.590;2022-09-24T00:41:57;6.67;;;3.10;;
72949;SDS011;62720;45.710;9.590;2022-09-24T00:49:51;12.38;;;3.53;;
72949;SDS011;62720;45.710;9.590;2022-09-24T00:52:19;8.65;;;3.13;;
72949;SDS011;62720;45.710;9.590;2022-09-24T00:54:44;7.43;;;3.13;;
72949;SDS011;62720;45.710;9.590;2022-09-24T00:57:10;7.00;;;3.30;;
72949;SDS011;62720;45.710;9.590;2022-09-24T00:59:36;6.38;;;3.00;;
72949;SDS011;62720;45.710;9.590;2022-09-24T01:02:02;9.25;;;3.92;;
72949;SDS011;62720;45.710;9.590;2022-09-24T01:04:28;7.65;;;3.53;;
72949;SDS011;62720;45.710;9.590;2022-09-24T01:06:54;9.35;;;3.40;;
72949;SDS011;62720;45.710;9.590;2022-09-24T01:09:20;11.63;;;3.83;;
72949;SDS011;62720;45.710;9.590;2022-09-24T01:16:53;9.27;;;3.42;;
72949;SDS011;62720;45.710;9.590;2022-09-24T01:24:55;7.93;;;3.33;;
72949;SDS011;62720;45.710;9.590;2022-09-24T01:37:27;8.02;;;3.92;;
72949;SDS011;62720;45.710;9.590;2022-09-24T01:39:55;6.43;;;3.33;;
72949;SDS011;62720;45.710;9.590;2022-09-24T01:42:21;9.30;;;3.33;;
72949;SDS011;62720;45.710;9.590;2022-09-24T01:44:47;7.72;;;3.35;;
72949;SDS011;62720;45.710;9.590;2022-09-24T01:47:19;9.32;;;3.30;;
72949;SDS011;62720;45.710;9.590;2022-09-24T01:49:45;7.15;;;3.05;;
72949;SDS011;62720;45.710;9.590;2022-09-24T01:52:12;6.90;;;3.00;;
72949;SDS011;62720;45.710;9.590;2022-09-24T01:54:42;6.65;;;2.92;;
72949;SDS011;62720;45.710;9.590;2022-09-24T01:57:16;9.30;;;2.90;;
72949;SDS011;62720;45.710;9.590;2022-09-24T01:59:54;7.68;;;3.47;;
72949;SDS011;62720;45.710;9.590;2022-09-24T02:02:26;7.40;;;3.40;;
72949;SDS011;62720;45.710;9.590;2022-09-24T02:04:57;7.43;;;3.50;;
72949;SDS011;62720;45.710;9.590;2022-09-24T02:07:25;7.90;;;3.20;;
72949;SDS011;62720;45.710;9.590;2022-09-24T02:09:53;6.82;;;3.13;;
72949;SDS011;62720;45.710;9.590;2022-09-24T02:14:54;8.68;;;3.80;;
72949;SDS011;62720;45.710;9.590;2022-09-24T02:17:21;10.88;;;3.63;;
72949;SDS011;62720;45.710;9.590;2022-09-24T02:19:48;7.60;;;3.53;;
72949;SDS011;62720;45.710;9.590;2022-09-24T02:22:13;8.68;;;3.33;;
72949;SDS011;62720;45.710;9.590;2022-09-24T02:24:42;7.75;;;3.50;;
72949;SDS011;62720;45.710;9.590;2022-09-24T02:29:33;7.00;;;3.67;;
72949;SDS011;62720;45.710;9.590;2022-09-24T02:31:59;7.57;;;3.28;;
72949;SDS011;62720;45.710;9.590;2022-09-24T02:34:45;8.23;;;3.75;;
72949;SDS011;62720;45.710;9.590;2022-09-24T02:37:14;7.10;;;3.72;;
72949;SDS011;62720;45.710;9.590;2022-09-24T02:39:40;8.05;;;3.22;;
72949;SDS011;62720;45.710;9.590;2022-09-24T02:42:06;9.68;;;3.83;;
72949;SDS011;62720;45.710;9.590;2022-09-24T02:44:33;9.30;;;3.20;;
72949;SDS011;62720;45.710;9.590;2022-09-24T02:47:00;7.38;;;3.53;;
72949;SDS011;62720;45.710;9.590;2022-09-24T02:49:25;10.80;;;3.65;;
72949;SDS011;62720;45.710;9.590;2022-09-24T02:51:50;9.65;;;3.72;;
72949;SDS011;62720;45.710;9.590;2022-09-24T02:54:16;7.90;;;3.50;;
72949;SDS011;62720;45.710;9.590;2022-09-24T02:56:42;10.18;;;3.78;;
72949;SDS011;62720;45.710;9.590;2022-09-24T02:59:07;8.00;;;3.67;;
72949;SDS011;62720;45.710;9.590;2022-09-24T03:01:33;8.77;;;3.40;;
72949;SDS011;62720;45.710;9.590;2022-09-24T03:03:58;7.93;;;3.50;;
72949;SDS011;62720;45.710;9.590;2022-09-24T03:06:23;7.75;;;3.63;;
72949;SDS011;62720;45.710;9.590;2022-09-24T03:08:49;6.70;;;3.50;;
72949;SDS011;62720;45.710;9.590;2022-09-24T03:11:14;8.45;;;3.65;;
72949;SDS011;62720;45.710;9.590;2022-09-24T03:13:40;7.10;;;3.53;;
72949;SDS011;62720;45.710;9.590;2022-09-24T03:16:05;7.80;;;3.28;;
72949;SDS011;62720;45.710;9.590;2022-09-24T03:18:31;6.57;;;3.53;;
72949;SDS011;62720;45.710;9.590;2022-09-24T03:20:57;6.70;;;3.25;;
72949;SDS011;62720;45.710;9.590;2022-09-24T03:23:22;7.57;;;3.75;;
72949;SDS011;62720;45.710;9.590;2022-09-24T03:25:48;7.88;;;3.72;;
72949;SDS011;62720;45.710;9.590;2022-09-24T03:28:13;8.15;;;3.83;;
72949;SDS011;62720;45.710;9.590;2022-09-24T03:30:38;9.70;;;4.10;;
72949;SDS011;62720;45.710;9.590;2022-09-24T03:33:22;7.70;;;3.72;;
72949;SDS011;62720;45.710;9.590;2022-09-24T03:35:47;7.97;;;3.60;;
72949;SDS011;62720;45.710;9.590;2022-09-24T03:38:13;6.53;;;3.33;;
72949;SDS011;62720;45.710;9.590;2022-09-24T03:40:38;8.17;;;3.43;;
72949;SDS011;62720;45.710;9.590;2022-09-24T03:43:03;7.03;;;3.42;;
72949;SDS011;62720;45.710;9.590;2022-09-24T03:45:28;6.70;;;3.33;;
72949;SDS011;62720;45.710;9.590;2022-09-24T03:47:54;9.13;;;3.67;;
72949;SDS011;62720;45.710;9.590;2022-09-24T03:50:19;12.20;;;3.60;;
72949;SDS011;62720;45.710;9.590;2022-09-24T03:52:44;8.70;;;3.55;;
72949;SDS011;62720;45.710;9.590;2022-09-24T03:55:10;9.57;;;3.70;;
72949;SDS011;62720;45.710;9.590;2022-09-24T03:57:35;8.55;;;3.33;;
72949;SDS011;62720;45.710;9.590;2022-09-24T04:00:00;7.65;;;3.30;;
72949;SDS011;62720;45.710;9.590;2022-09-24T04:02:26;6.53;;;3.20;;
72949;SDS011;62720;45.710;9.590;2022-09-24T04:04:51;8.10;;;3.53;;
72949;SDS011;62720;45.710;9.590;2022-09-24T04:07:16;6.27;;;3.40;;
72949;SDS011;62720;45.710;9.590;2022-09-24T04:09:41;6.43;;;3.40;;
72949;SDS011;62720;45.710;9.590;2022-09-24T04:12:07;8.23;;;3.27;;
72949;SDS011;62720;45.710;9.590;2022-09-24T04:14:32;6.50;;;3.23;;
72949;SDS011;62720;45.710;9.590;2022-09-24T04:16:57;8.50;;;3.73;;
72949;SDS011;62720;45.710;9.590;2022-09-24T04:19:23;7.43;;;3.70;;
72949;SDS011;62720;45.710;9.590;2022-09-24T04:21:48;8.80;;;3.83;;
72949;SDS011;62720;45.710;9.590;2022-09-24T04:24:13;6.50;;;3.40;;
72949;SDS011;62720;45.710;9.590;2022-09-24T04:26:38;7.15;;;3.63;;
72949;SDS011;62720;45.710;9.590;2022-09-24T04:29:04;7.73;;;3.70;;
72949;SDS011;62720;45.710;9.590;2022-09-24T04:31:30;8.50;;;3.97;;
72949;SDS011;62720;45.710;9.590;2022-09-24T04:33:57;9.05;;;3.95;;
72949;SDS011;62720;45.710;9.590;2022-09-24T04:36:22;7.57;;;3.65;;
72949;SDS011;62720;45.710;9.590;2022-09-24T04:38:48;9.90;;;3.70;;
72949;SDS011;62720;45.710;9.590;2022-09-24T04:41:13;7.53;;;3.58;;
72949;SDS011;62720;45.710;9.590;2022-09-24T04:43:41;6.63;;;3.38;;
72949;SDS011;62720;45.710;9.590;2022-09-24T04:46:07;7.18;;;3.85;;
72949;SDS011;62720;45.710;9.590;2022-09-24T04:48:33;9.52;;;4.57;;
72949;SDS011;62720;45.710;9.590;2022-09-24T04:51:01;10.63;;;4.22;;
72949;SDS011;62720;45.710;9.590;2022-09-24T04:53:27;12.40;;;4.50;;
72949;SDS011;62720;45.710;9.590;2022-09-24T04:55:52;7.90;;;3.80;;
72949;SDS011;62720;45.710;9.590;2022-09-24T04:58:17;8.37;;;3.93;;
72949;SDS011;62720;45.710;9.590;2022-09-24T05:00:43;9.03;;;3.90;;
72949;SDS011;62720;45.710;9.590;2022-09-24T05:03:08;9.52;;;3.85;;
72949;SDS011;62720;45.710;9.590;2022-09-24T05:05:33;9.85;;;4.20;;
72949;SDS011;62720;45.710;9.590;2022-09-24T05:07:59;7.15;;;4.03;;
72949;SDS011;62720;45.710;9.590;2022-09-24T05:10:25;7.63;;;3.72;;
72949;SDS011;62720;45.710;9.590;2022-09-24T05:12:51;9.48;;;4.10;;
72949;SDS011;62720;45.710;9.590;2022-09-24T05:15:16;10.10;;;3.92;;
72949;SDS011;62720;45.710;9.590;2022-09-24T05:17:43;10.10;;;3.97;;
72949;SDS011;62720;45.710;9.590;2022-09-24T05:20:09;8.93;;;4.28;;
72949;SDS011;62720;45.710;9.590;2022-09-24T05:22:39;9.25;;;4.50;;
72949;SDS011;62720;45.710;9.590;2022-09-24T05:25:04;8.98;;;3.95;;
72949;SDS011;62720;45.710;9.590;2022-09-24T05:27:29;8.02;;;3.33;;
72949;SDS011;62720;45.710;9.590;2022-09-24T05:29:55;11.17;;;4.40;;
72949;SDS011;62720;45.710;9.590;2022-09-24T05:32:20;10.80;;;4.00;;
72949;SDS011;62720;45.710;9.590;2022-09-24T05:34:45;10.67;;;4.57;;
72949;SDS011;62720;45.710;9.590;2022-09-24T05:37:11;9.60;;;4.05;;
72949;SDS011;62720;45.710;9.590;2022-09-24T05:39:37;11.88;;;4.00;;
72949;SDS011;62720;45.710;9.590;2022-09-24T05:42:02;9.10;;;4.03;;
72949;SDS011;62720;45.710;9.590;2022-09-24T05:44:28;9.57;;;4.10;;
72949;SDS011;62720;45.710;9.590;2022-09-24T05:46:55;8.07;;;3.65;;
72949;SDS011;62720;45.710;9.590;2022-09-24T05:49:20;13.70;;;4.32;;
72949;SDS011;62720;45.710;9.590;2022-09-24T05:51:46;7.30;;;3.97;;
72949;SDS011;62720;45.710;9.590;2022-09-24T05:54:11;8.90;;;4.05;;
72949;SDS011;62720;45.710;9.590;2022-09-24T05:56:37;10.07;;;4.57;;
72949;SDS011;62720;45.710;9.590;2022-09-24T05:59:02;7.88;;;4.03;;
72949;SDS011;62720;45.710;9.590;2022-09-24T06:01:27;9.55;;;3.88;;
72949;SDS011;62720;45.710;9.590;2022-09-24T06:03:56;7.45;;;3.47;;
72949;SDS011;62720;45.710;9.590;2022-09-24T06:06:21;8.68;;;4.15;;
72949;SDS011;62720;45.710;9.590;2022-09-24T06:08:47;9.23;;;4.22;;
72949;SDS011;62720;45.710;9.590;2022-09-24T06:11:12;11.03;;;4.43;;
72949;SDS011;62720;45.710;9.590;2022-09-24T06:13:38;11.93;;;4.18;;
72949;SDS011;62720;45.710;9.590;2022-09-24T06:16:04;11.70;;;4.15;;
72949;SDS011;62720;45.710;9.590;2022-09-24T06:18:32;9.45;;;4.35;;
72949;SDS011;62720;45.710;9.590;2022-09-24T06:21:01;8.63;;;3.92;;
72949;SDS011;62720;45.710;9.590;2022-09-24T06:23:28;9.25;;;4.53;;
72949;SDS011;62720;45.710;9.590;2022-09-24T06:25:55;9.73;;;4.55;;
72949;SDS011;62720;45.710;9.590;2022-09-24T06:28:20;12.35;;;4.53;;
72949;SDS011;62720;45.710;9.590;2022-09-24T06:30:45;11.02;;;4.10;;
72949;SDS011;62720;45.710;9.590;2022-09-24T06:33:11;8.70;;;4.60;;
72949;SDS011;62720;45.710;9.590;2022-09-24T06:35:37;9.98;;;4.22;;
72949;SDS011;62720;45.710;9.590;2022-09-24T06:38:03;10.98;;;4.47;;
72949;SDS011;62720;45.710;9.590;2022-09-24T06:40:28;12.18;;;4.78;;
72949;SDS011;62720;45.710;9.590;2022-09-24T06:42:54;8.80;;;4.55;;
72949;SDS011;62720;45.710;9.590;2022-09-24T06:45:20;8.38;;;4.60;;
72949;SDS011;62720;45.710;9.590;2022-09-24T06:47:55;9.05;;;4.43;;
72949;SDS011;62720;45.710;9.590;2022-09-24T06:50:21;12.40;;;4.10;;
72949;SDS011;62720;45.710;9.590;2022-09-24T06:52:46;12.63;;;4.07;;
72949;SDS011;62720;45.710;9.590;2022-09-24T06:55:12;9.93;;;4.53;;
72949;SDS011;62720;45.710;9.590;2022-09-24T06:57:37;9.63;;;4.60;;
72949;SDS011;62720;45.710;9.590;2022-09-24T07:00:02;10.47;;;4.70;;
72949;SDS011;62720;45.710;9.590;2022-09-24T07:02:28;10.65;;;4.68;;
72949;SDS011;62720;45.710;9.590;2022-09-24T07:04:55;8.55;;;4.60;;
72949;SDS011;62720;45.710;9.590;2022-09-24T07:07:20;9.57;;;4.90;;
72949;SDS011;62720;45.710;9.590;2022-09-24T07:09:58;8.60;;;5.43;;
72949;SDS011;62720;45.710;9.590;2022-09-24T07:12:24;13.20;;;5.15;;
72949;SDS011;62720;45.710;9.590;2022-09-24T07:14:49;9.52;;;4.88;;
72949;SDS011;62720;45.710;9.590;2022-09-24T07:17:15;11.38;;;5.97;;
72949;SDS011;62720;45.710;9.590;2022-09-24T07:19:40;10.48;;;6.28;;
72949;SDS011;62720;45.710;9.590;2022-09-24T07:22:06;11.95;;;6.25;;
72949;SDS011;62720;45.710;9.590;2022-09-24T07:24:31;13.52;;;6.20;;
72949;SDS011;62720;45.710;9.590;2022-09-24T07:26:56;10.98;;;6.43;;
72949;SDS011;62720;45.710;9.590;2022-09-24T07:29:22;10.43;;;6.13;;
72949;SDS011;62720;45.710;9.590;2022-09-24T07:31:47;31.83;;;7.10;;
72949;SDS011;62720;45.710;9.590;2022-09-24T07:34:12;11.80;;;6.70;;
72949;SDS011;62720;45.710;9.590;2022-09-24T07:36:38;13.13;;;7.15;;
72949;SDS011;62720;45.710;9.590;2022-09-24T07:39:03;11.68;;;7.68;;
72949;SDS011;62720;45.710;9.590;2022-09-24T07:41:29;11.48;;;7.60;;
72949;SDS011;62720;45.710;9.590;2022-09-24T07:43:54;15.98;;;8.68;;
72949;SDS011;62720;45.710;9.590;2022-09-24T07:46:20;17.83;;;8.48;;
72949;SDS011;62720;45.710;9.590;2022-09-24T07:48:45;11.32;;;7.78;;
72949;SDS011;62720;45.710;9.590;2022-09-24T07:51:13;13.20;;;8.00;;
72949;SDS011;62720;45.710;9.590;2022-09-24T07:53:38;11.80;;;7.82;;
72949;SDS011;62720;45.710;9.590;2022-09-24T07:56:03;13.25;;;7.95;;
72949;SDS011;62720;45.710;9.590;2022-09-24T07:58:29;11.63;;;7.85;;
72949;SDS011;62720;45.710;9.590;2022-09-24T08:00:58;13.68;;;8.23;;
72949;SDS011;62720;45.710;9.590;2022-09-24T08:03:24;15.20;;;9.57;;
72949;SDS011;62720;45.710;9.590;2022-09-24T08:05:50;13.88;;;9.15;;
72949;SDS011;62720;45.710;9.590;2022-09-24T08:08:16;12.27;;;8.90;;
72949;SDS011;62720;45.710;9.590;2022-09-24T08:10:41;15.35;;;9.50;;
72949;SDS011;62720;45.710;9.590;2022-09-24T08:13:07;13.73;;;8.40;;
72949;SDS011;62720;45.710;9.590;2022-09-24T08:15:32;14.20;;;8.13;;
72949;SDS011;62720;45.710;9.590;2022-09-24T08:18:01;17.30;;;10.05;;
72949;SDS011;62720;45.710;9.590;2022-09-24T08:20:27;13.30;;;8.55;;
72949;SDS011;62720;45.710;9.590;2022-09-24T08:22:53;16.17;;;9.32;;
72949;SDS011;62720;45.710;9.590;2022-09-24T08:25:19;19.55;;;9.70;;
72949;SDS011;62720;45.710;9.590;2022-09-24T08:27:44;16.30;;;10.38;;
72949;SDS011;62720;45.710;9.590;2022-09-24T08:30:10;17.35;;;10.77;;
72949;SDS011;62720;45.710;9.590;2022-09-24T08:32:35;19.92;;;11.25;;
72949;SDS011;62720;45.710;9.590;2022-09-24T08:35:00;17.37;;;10.40;;
72949;SDS011;62720;45.710;9.590;2022-09-24T08:37:26;23.83;;;11.30;;
72949;SDS011;62720;45.710;9.590;2022-09-24T08:39:51;24.65;;;12.48;;
72949;SDS011;62720;45.710;9.590;2022-09-24T08:44:48;20.70;;;11.23;;
72949;SDS011;62720;45.710;9.590;2022-09-24T08:47:43;16.48;;;10.50;;
72949;SDS011;62720;45.710;9.590;2022-09-24T08:50:19;21.08;;;10.77;;
72949;SDS011;62720;45.710;9.590;2022-09-24T08:55:25;17.03;;;10.37;;
72949;SDS011;62720;45.710;9.590;2022-09-24T08:57:57;21.92;;;10.30;;
72949;SDS011;62720;45.710;9.590;2022-09-24T09:00:23;21.92;;;11.60;;
72949;SDS011;62720;45.710;9.590;2022-09-24T09:08:01;24.00;;;12.68;;
72949;SDS011;62720;45.710;9.590;2022-09-24T09:10:33;23.70;;;13.85;;
72949;SDS011;62720;45.710;9.590;2022-09-24T09:15:35;25.27;;;12.90;;
72949;SDS011;62720;45.710;9.590;2022-09-24T09:18:48;20.80;;;12.80;;
72949;SDS011;62720;45.710;9.590;2022-09-24T09:20:48;21.73;;;13.30;;
72949;SDS011;62720;45.710;9.590;2022-09-24T09:23:20;20.20;;;13.00;;
72949;SDS011;62720;45.710;9.590;2022-09-24T09:25:56;39.17;;;20.05;;
72949;SDS011;62720;45.710;9.590;2022-09-24T09:28:24;48.33;;;22.73;;
72949;SDS011;62720;45.710;9.590;2022-09-24T09:30:54;39.90;;;19.33;;
72949;SDS011;62720;45.710;9.590;2022-09-24T09:35:48;29.15;;;16.98;;
72949;SDS011;62720;45.710;9.590;2022-09-24T09:43:39;26.65;;;15.35;;
72949;SDS011;62720;45.710;9.590;2022-09-24T09:48:37;23.48;;;14.75;;
72949;SDS011;62720;45.710;9.590;2022-09-24T09:51:04;25.10;;;14.73;;
72949;SDS011;62720;45.710;9.590;2022-09-24T09:53:30;30.10;;;14.55;;
72949;SDS011;62720;45.710;9.590;2022-09-24T09:58:22;23.95;;;14.05;;
72949;SDS011;62720;45.710;9.590;2022-09-24T10:00:48;22.67;;;14.93;;
72949;SDS011;62720;45.710;9.590;2022-09-24T10:03:47;20.27;;;13.07;;
72949;SDS011;62720;45.710;9.590;2022-09-24T10:06:05;19.15;;;12.30;;
72949;SDS011;62720;45.710;9.590;2022-09-24T10:08:31;19.25;;;13.75;;
72949;SDS011;62720;45.710;9.590;2022-09-24T10:10:58;18.15;;;13.13;;
72949;SDS011;62720;45.710;9.590;2022-09-24T10:13:24;21.33;;;14.27;;
72949;SDS011;62720;45.710;9.590;2022-09-24T10:15:50;20.30;;;14.05;;
72949;SDS011;62720;45.710;9.590;2022-09-24T10:18:16;19.55;;;13.82;;
72949;SDS011;62720;45.710;9.590;2022-09-24T10:20:47;21.98;;;15.23;;
72949;SDS011;62720;45.710;9.590;2022-09-24T10:23:19;28.88;;;15.25;;
72949;SDS011;62720;45.710;9.590;2022-09-24T10:25:57;22.52;;;14.57;;
72949;SDS011;62720;45.710;9.590;2022-09-24T10:28:23;21.77;;;14.60;;
72949;SDS011;62720;45.710;9.590;2022-09-24T10:31:10;21.80;;;14.63;;
72949;SDS011;62720;45.710;9.590;2022-09-24T10:33:36;24.55;;;15.18;;
72949;SDS011;62720;45.710;9.590;2022-09-24T10:36:06;21.40;;;14.85;;
72949;SDS011;62720;45.710;9.590;2022-09-24T10:38:32;20.77;;;14.32;;
72949;SDS011;62720;45.710;9.590;2022-09-24T10:40:57;21.13;;;14.63;;
72949;SDS011;62720;45.710;9.590;2022-09-24T10:43:23;28.13;;;16.92;;
72949;SDS011;62720;45.710;9.590;2022-09-24T10:51:09;26.45;;;17.60;;
72949;SDS011;62720;45.710;9.590;2022-09-24T10:53:53;26.40;;;17.60;;
72949;SDS011;62720;45.710;9.590;2022-09-24T11:12:03;23.85;;;16.08;;
72949;SDS011;62720;45.710;9.590;2022-09-24T11:17:09;32.47;;;17.23;;
72949;SDS011;62720;45.710;9.590;2022-09-24T11:22:07;22.48;;;15.88;;
72949;SDS011;62720;45.710;9.590;2022-09-24T11:29:43;22.65;;;16.38;;
72949;SDS011;62720;45.710;9.590;2022-09-24T11:37:31;23.13;;;14.10;;
72949;SDS011;62720;45.710;9.590;2022-09-24T11:43:04;22.50;;;14.27;;
72949;SDS011;62720;45.710;9.590;2022-09-24T11:48:05;23.35;;;13.95;;
72949;SDS011;62720;45.710;9.590;2022-09-24T11:53:13;22.17;;;15.70;;
72949;SDS011;62720;45.710;9.590;2022-09-24T11:55:46;20.27;;;15.13;;
72949;SDS011;62720;45.710;9.590;2022-09-24T11:58:17;24.05;;;16.13;;
72949;SDS011;62720;45.710;9.590;2022-09-24T12:00:58;22.58;;;16.00;;
72949;SDS011;62720;45.710;9.590;2022-09-24T12:03:31;21.52;;;15.45;;
72949;SDS011;62720;45.710;9.590;2022-09-24T12:06:03;18.45;;;13.32;;
72949;SDS011;62720;45.710;9.590;2022-09-24T12:08:31;21.27;;;14.90;;
72949;SDS011;62720;45.710;9.590;2022-09-24T12:11:43;20.83;;;14.63;;
72949;SDS011;62720;45.710;9.590;2022-09-24T12:16:19;24.63;;;14.55;;
72949;SDS011;62720;45.710;9.590;2022-09-24T12:21:21;22.30;;;15.43;;
72949;SDS011;62720;45.710;9.590;2022-09-24T12:23:50;22.55;;;16.17;;
72949;SDS011;62720;45.710;9.590;2022-09-24T12:26:16;20.85;;;15.30;;
72949;SDS011;62720;45.710;9.590;2022-09-24T12:31:48;22.27;;;15.52;;
72949;SDS011;62720;45.710;9.590;2022-09-24T12:37:12;20.43;;;14.63;;
72949;SDS011;62720;45.710;9.590;2022-09-24T12:42:08;22.42;;;13.55;;
72949;SDS011;62720;45.710;9.590;2022-09-24T12:47:26;28.77;;;12.38;;
72949;SDS011;62720;45.710;9.590;2022-09-24T12:49:59;20.02;;;12.18;;
72949;SDS011;62720;45.710;9.590;2022-09-24T12:52:31;32.47;;;13.13;;
72949;SDS011;62720;45.710;9.590;2022-09-24T12:55:02;21.77;;;12.43;;
72949;SDS011;62720;45.710;9.590;2022-09-24T13:02:19;16.53;;;11.53;;
72949;SDS011;62720;45.710;9.590;2022-09-24T13:04:49;18.42;;;12.40;;
72949;SDS011;62720;45.710;9.590;2022-09-24T13:07:32;33.28;;;12.82;;
72949;SDS011;62720;45.710;9.590;2022-09-24T13:10:09;19.08;;;12.38;;
72949;SDS011;62720;45.710;9.590;2022-09-24T13:12:34;20.75;;;13.15;;
72949;SDS011;62720;45.710;9.590;2022-09-24T13:15:01;21.70;;;13.05;;
72949;SDS011;62720;45.710;9.590;2022-09-24T13:17:31;19.60;;;12.65;;
72949;SDS011;62720;45.710;9.590;2022-09-24T13:20:03;20.02;;;13.52;;
72949;SDS011;62720;45.710;9.590;2022-09-24T13:22:30;20.67;;;13.35;;
72949;SDS011;62720;45.710;9.590;2022-09-24T13:27:38;18.83;;;12.07;;
72949;SDS011;62720;45.710;9.590;2022-09-24T13:32:30;18.17;;;12.00;;
72949;SDS011;62720;45.710;9.590;2022-09-24T13:37:29;19.40;;;11.93;;
72949;SDS011;62720;45.710;9.590;2022-09-24T13:39:58;15.43;;;10.68;;
72949;SDS011;62720;45.710;9.590;2022-09-24T13:44:55;22.70;;;11.37;;
72949;SDS011;62720;45.710;9.590;2022-09-24T13:47:33;17.85;;;11.65;;
72949;SDS011;62720;45.710;9.590;2022-09-24T13:50:06;17.80;;;11.27;;
72949;SDS011;62720;45.710;9.590;2022-09-24T13:52:37;16.85;;;12.07;;
72949;SDS011;62720;45.710;9.590;2022-09-24T13:55:16;18.95;;;12.45;;
72949;SDS011;62720;45.710;9.590;2022-09-24T13:57:43;17.20;;;11.63;;
72949;SDS011;62720;45.710;9.590;2022-09-24T14:02:57;24.25;;;13.13;;
72949;SDS011;62720;45.710;9.590;2022-09-24T14:05:24;21.60;;;13.30;;
72949;SDS011;62720;45.710;9.590;2022-09-24T14:08:04;19.73;;;12.30;;
72949;SDS011;62720;45.710;9.590;2022-09-24T14:10:30;21.08;;;13.05;;
72949;SDS011;62720;45.710;9.590;2022-09-24T14:12:59;21.15;;;12.90;;
72949;SDS011;62720;45.710;9.590;2022-09-24T14:15:24;21.52;;;13.18;;
72949;SDS011;62720;45.710;9.590;2022-09-24T14:17:54;17.60;;;13.07;;
72949;SDS011;62720;45.710;9.590;2022-09-24T14:20:19;20.17;;;13.43;;
72949;SDS011;62720;45.710;9.590;2022-09-24T14:22:46;22.63;;;13.98;;
72949;SDS011;62720;45.710;9.590;2022-09-24T14:25:15;20.20;;;13.68;;
72949;SDS011;62720;45.710;9.590;2022-09-24T14:27:42;18.90;;;13.90;;
72949;SDS011;62720;45.710;9.590;2022-09-24T14:30:19;21.05;;;14.27;;
72949;SDS011;62720;45.710;9.590;2022-09-24T14:32:48;23.38;;;14.70;;
72949;SDS011;62720;45.710;9.590;2022-09-24T14:35:16;25.13;;;13.93;;
72949;SDS011;62720;45.710;9.590;2022-09-24T14:37:52;21.13;;;14.68;;
72949;SDS011;62720;45.710;9.590;2022-09-24T14:40:19;22.33;;;14.65;;
72949;SDS011;62720;45.710;9.590;2022-09-24T14:42:46;23.17;;;13.48;;
72949;SDS011;62720;45.710;9.590;2022-09-24T14:45:19;19.92;;;14.65;;
72949;SDS011;62720;45.710;9.590;2022-09-24T14:47:45;25.80;;;14.15;;
72949;SDS011;62720;45.710;9.590;2022-09-24T14:50:23;21.80;;;14.68;;
72949;SDS011;62720;45.710;9.590;2022-09-24T14:52:54;26.40;;;14.77;;
72949;SDS011;62720;45.710;9.590;2022-09-24T14:55:37;20.90;;;12.98;;
72949;SDS011;62720;45.710;9.590;2022-09-24T14:58:04;21.90;;;14.20;;
72949;SDS011;62720;45.710;9.590;2022-09-24T15:00:33;25.60;;;13.63;;
72949;SDS011;62720;45.710;9.590;2022-09-24T15:06:00;19.13;;;14.27;;
72949;SDS011;62720;45.710;9.590;2022-09-24T15:08:26;20.52;;;14.40;;
72949;SDS011;62720;45.710;9.590;2022-09-24T15:11:02;20.02;;;14.35;;
72949;SDS011;62720;45.710;9.590;2022-09-24T15:13:36;20.23;;;14.27;;
72949;SDS011;62720;45.710;9.590;2022-09-24T15:18:30;24.05;;;15.38;;
72949;SDS011;62720;45.710;9.590;2022-09-24T15:20:56;21.98;;;16.25;;
72949;SDS011;62720;45.710;9.590;2022-09-24T15:23:22;24.42;;;15.02;;
72949;SDS011;62720;45.710;9.590;2022-09-24T15:25:48;22.13;;;15.45;;
72949;SDS011;62720;45.710;9.590;2022-09-24T15:28:13;22.83;;;15.63;;
72949;SDS011;62720;45.710;9.590;2022-09-24T15:30:38;19.88;;;13.20;;
72949;SDS011;62720;45.710;9.590;2022-09-24T15:33:09;20.80;;;15.07;;
72949;SDS011;62720;45.710;9.590;2022-09-24T15:35:35;19.77;;;14.63;;
72949;SDS011;62720;45.710;9.590;2022-09-24T15:38:01;21.38;;;14.98;;
72949;SDS011;62720;45.710;9.590;2022-09-24T15:40:26;22.83;;;16.63;;
72949;SDS011;62720;45.710;9.590;2022-09-24T15:42:55;20.83;;;15.95;;
72949;SDS011;62720;45.710;9.590;2022-09-24T15:45:21;21.02;;;15.50;;
72949;SDS011;62720;45.710;9.590;2022-09-24T15:47:47;23.70;;;18.05;;
72949;SDS011;62720;45.710;9.590;2022-09-24T15:50:12;33.17;;;18.58;;
72949;SDS011;62720;45.710;9.590;2022-09-24T15:52:40;23.05;;;16.58;;
72949;SDS011;62720;45.710;9.590;2022-09-24T15:55:11;23.45;;;16.92;;
72949;SDS011;62720;45.710;9.590;2022-09-24T15:57:37;24.15;;;17.88;;
72949;SDS011;62720;45.710;9.590;2022-09-24T16:00:02;25.63;;;19.73;;
72949;SDS011;62720;45.710;9.590;2022-09-24T16:02:28;27.17;;;18.42;;
72949;SDS011;62720;45.710;9.590;2022-09-24T16:04:55;26.38;;;20.17;;
72949;SDS011;62720;45.710;9.590;2022-09-24T16:07:21;31.23;;;19.65;;
72949;SDS011;62720;45.710;9.590;2022-09-24T16:09:46;25.50;;;20.30;;
72949;SDS011;62720;45.710;9.590;2022-09-24T16:12:12;26.37;;;19.00;;
72949;SDS011;62720;45.710;9.590;2022-09-24T16:14:38;27.92;;;20.20;;
72949;SDS011;62720;45.710;9.590;2022-09-24T16:17:04;25.53;;;19.50;;
72949;SDS011;62720;45.710;9.590;2022-09-24T16:19:29;27.33;;;21.08;;
72949;SDS011;62720;45.710;9.590;2022-09-24T16:21:54;29.55;;;21.02;;
72949;SDS011;62720;45.710;9.590;2022-09-24T16:24:20;30.25;;;20.55;;
72949;SDS011;62720;45.710;9.590;2022-09-24T16:26:45;26.67;;;20.75;;
72949;SDS011;62720;45.710;9.590;2022-09-24T16:29:11;29.50;;;21.70;;
72949;SDS011;62720;45.710;9.590;2022-09-24T16:31:36;24.90;;;19.35;;
72949;SDS011;62720;45.710;9.590;2022-09-24T16:34:01;27.13;;;20.50;;
72949;SDS011;62720;45.710;9.590;2022-09-24T16:36:27;31.17;;;22.08;;
72949;SDS011;62720;45.710;9.590;2022-09-24T16:38:52;26.00;;;18.90;;
72949;SDS011;62720;45.710;9.590;2022-09-24T16:41:17;28.23;;;21.83;;
72949;SDS011;62720;45.710;9.590;2022-09-24T16:43:42;32.30;;;21.97;;
72949;SDS011;62720;45.710;9.590;2022-09-24T16:46:08;27.40;;;19.83;;
72949;SDS011;62720;45.710;9.590;2022-09-24T16:48:34;28.52;;;21.35;;
72949;SDS011;62720;45.710;9.590;2022-09-24T16:51:00;30.50;;;22.95;;
72949;SDS011;62720;45.710;9.590;2022-09-24T16:53:26;31.52;;;22.10;;
72949;SDS011;62720;45.710;9.590;2022-09-24T16:55:52;30.00;;;22.10;;